Marcolorado — V2EY5 — position and weather

sailwx.info

Track history (hours):
 
Tides and Currents Weather Stations Pressure Air Temp Water Temp Dewpoint Dewpoint Depression Visibility Wind Speed Wind Dir Waves Ship Positions

Marcolorado

Last reported at 2016-Jul-10 11:09 UTC. Time now 2016-Aug-24 01:36 UTC.
Position N 29°31' W 094°53'.
Warning: this ship's position is 44 days out of date.

Length 185 m; draft 16.1 m.

Type: Ship. MMSI: 305599000.

Date/timePositionNaut miles runAvg speedWind from/ knotsBaromVisibWave heightAir tempDewpointWater temp
2016-Jul-10 11:09N 29°31' W 094°53'711.3
2016-Jul-10 10:33N 29°36' W 094°57'9 9.2
2016-Jul-10 09:33N 29°44' W 095°03'3 0.7
2016-Jul-10 04:33N 29°44' W 095°07'0 0.0
2016-Jul-10 03:30N 29°44' W 095°07'0 0.0
2016-Jul-10 00:27N 29°44' W 095°07'0 0.0
2016-Jul-09 23:18N 29°44' W 095°07'0 0.0
2016-Jul-09 22:33N 29°44' W 095°07'0 0.0
2016-Jul-09 21:33N 29°44' W 095°07'0 0.0
2016-Jul-09 20:30N 29°44' W 095°07'0 0.0
2016-Jul-09 19:27N 29°44' W 095°07'0 0.0
2016-Jul-09 18:27N 29°44' W 095°07'0 0.0
2016-Jul-09 17:33N 29°44' W 095°07'0 0.0
2016-Jul-09 16:33N 29°44' W 095°07'0 0.0
2016-Jul-09 15:33N 29°44' W 095°07'0 0.0
2016-Jul-09 14:33N 29°44' W 095°07'0 0.0
2016-Jul-09 13:21N 29°44' W 095°07'0 0.0
2016-Jul-09 12:30N 29°44' W 095°07'0 0.0
2016-Jul-09 11:27N 29°44' W 095°07'0 0.0
2016-Jul-09 10:27N 29°44' W 095°07'0 0.0
2016-Jul-09 09:09N 29°44' W 095°07'0 0.0
2016-Jul-09 08:30N 29°44' W 095°07'0 0.0
2016-Jul-09 07:33N 29°44' W 095°07'0 0.0
2016-Jul-09 06:03N 29°44' W 095°07'0 0.0
2016-Jul-09 04:30N 29°44' W 095°07'0 0.0
2016-Jul-09 02:30N 29°44' W 095°07'0 0.0
2016-Jul-09 01:30N 29°44' W 095°07'0 0.0
2016-Jul-09 00:33N 29°44' W 095°07'0 0.0
2016-Jul-08 23:33N 29°44' W 095°07'0 0.0
2016-Jul-08 22:27N 29°44' W 095°07'0 0.0
2016-Jul-08 21:33N 29°44' W 095°07'0 0.0
2016-Jul-08 20:24N 29°44' W 095°07'0 0.0
2016-Jul-08 19:21N 29°44' W 095°07'0 0.0
2016-Jul-08 18:33N 29°44' W 095°07'0 0.0
2016-Jul-08 17:33N 29°44' W 095°07'0 0.0
2016-Jul-08 16:30N 29°44' W 095°07'0 0.0
2016-Jul-08 15:30N 29°44' W 095°07'0 0.5
2016-Jul-08 14:31N 29°44' W 095°07'7 6.1
2016-Jul-08 13:21N 29°44' W 095°15'1 0.0
2016-Jul-07 12:27N 29°44' W 095°17'4 3.8
2016-Jul-07 11:29N 29°44' W 095°12'6 6.4
2016-Jul-07 10:33N 29°45' W 095°06'7 7.0
2016-Jul-07 09:32N 29°41' W 094°59'1111.4
2016-Jul-07 08:33N 29°31' W 094°53'  
Track history (hours):
 
Tides and Currents Weather Stations Pressure Air Temp Water Temp Dewpoint Dewpoint Depression Visibility Wind Speed Wind Dir Waves Ship Positions

Marcolorado

Last reported at 2016-Jul-10 11:09 UTC. Time now 2016-Aug-24 01:36 UTC.
Position N 29°31' W 094°53'.
Warning: this ship's position is 44 days out of date.

Length 185 m; draft 16.1 m.

Type: Ship. MMSI: 305599000.

Date/timePositionNaut miles runAvg speedWind from/ knotsBaromVisibWave heightAir tempDewpointWater temp
2016-Jul-10 11:09N 29°31' W 094°53'711.3
2016-Jul-10 10:33N 29°36' W 094°57'9 9.2
2016-Jul-10 09:33N 29°44' W 095°03'3 0.7
2016-Jul-10 04:33N 29°44' W 095°07'0 0.0
2016-Jul-10 03:30N 29°44' W 095°07'0 0.0
2016-Jul-10 00:27N 29°44' W 095°07'0 0.0
2016-Jul-09 23:18N 29°44' W 095°07'0 0.0
2016-Jul-09 22:33N 29°44' W 095°07'0 0.0
2016-Jul-09 21:33N 29°44' W 095°07'0 0.0
2016-Jul-09 20:30N 29°44' W 095°07'0 0.0
2016-Jul-09 19:27N 29°44' W 095°07'0 0.0
2016-Jul-09 18:27N 29°44' W 095°07'0 0.0
2016-Jul-09 17:33N 29°44' W 095°07'0 0.0
2016-Jul-09 16:33N 29°44' W 095°07'0 0.0
2016-Jul-09 15:33N 29°44' W 095°07'0 0.0
2016-Jul-09 14:33N 29°44' W 095°07'0 0.0
2016-Jul-09 13:21N 29°44' W 095°07'0 0.0
2016-Jul-09 12:30N 29°44' W 095°07'0 0.0
2016-Jul-09 11:27N 29°44' W 095°07'0 0.0
2016-Jul-09 10:27N 29°44' W 095°07'0 0.0
2016-Jul-09 09:09N 29°44' W 095°07'0 0.0
2016-Jul-09 08:30N 29°44' W 095°07'0 0.0
2016-Jul-09 07:33N 29°44' W 095°07'0 0.0
2016-Jul-09 06:03N 29°44' W 095°07'0 0.0
2016-Jul-09 04:30N 29°44' W 095°07'0 0.0
2016-Jul-09 02:30N 29°44' W 095°07'0 0.0
2016-Jul-09 01:30N 29°44' W 095°07'0 0.0
2016-Jul-09 00:33N 29°44' W 095°07'0 0.0
2016-Jul-08 23:33N 29°44' W 095°07'0 0.0
2016-Jul-08 22:27N 29°44' W 095°07'0 0.0
2016-Jul-08 21:33N 29°44' W 095°07'0 0.0
2016-Jul-08 20:24N 29°44' W 095°07'0 0.0
2016-Jul-08 19:21N 29°44' W 095°07'0 0.0
2016-Jul-08 18:33N 29°44' W 095°07'0 0.0
2016-Jul-08 17:33N 29°44' W 095°07'0 0.0
2016-Jul-08 16:30N 29°44' W 095°07'0 0.0
2016-Jul-08 15:30N 29°44' W 095°07'0 0.5
2016-Jul-08 14:31N 29°44' W 095°07'7 6.1
2016-Jul-08 13:21N 29°44' W 095°15'1 0.0
2016-Jul-07 12:27N 29°44' W 095°17'4 3.8
2016-Jul-07 11:29N 29°44' W 095°12'6 6.4
2016-Jul-07 10:33N 29°45' W 095°06'7 7.0
2016-Jul-07 09:32N 29°41' W 094°59'1111.4
2016-Jul-07 08:33N 29°31' W 094°53'  

Dump ship's entire track history